Aeroporto :
LOGIN :

Iscrizione | Disclaimer

   EN    FR    IT 

 










Sommario :    VFR   VFR Marginale   IFR   IFR Intensivo   IFR Molto Intensivo
Visibilità : 
Base nubi : 
>= 8 km
>= 3000ft
5 / 8 km
1000 / 3000 ft
1500m / 5 km
500 / 1000 ft
800 / 1500m
200 / 500 ft
< 800m
< 200 ft
Simboli :   Temporali  Nebbia  Neve Forte  Precipitazioni Forti  Vento > 20 kt
SIGMETs :   Varie  Temporali  Ghiacco  Turbolenza  Onda orograficha  Ceneri Vulcaniche







- Altitudine del aeroporto : 614 ft
- Codice IATA : CRL


EBCI - Charleroi

ULTIMO METAR :
  • 191420Z 31005KT 260V020 5000 BR SCT009 BKN015 16/13 Q1006 TEMPO 1500 SHRA BR BKN004

METARs OBSOLETI :
  • 191350Z 31006KT 270V350 4000 BR SCT009 BKN015 15/13 Q1006 TEMPO 1500 SHRA BR BKN004
  • 191320Z 31006KT 270V350 4000 BR SCT009 BKN015 15/13 Q1006 TEMPO 1500 SHRA BR BKN004
  • 191250Z 32005KT 270V010 3500 BR SCT011 BKN015 15/13 Q1006 TEMPO 1500 SHRA BR BKN004
  • 191220Z 31006KT 270V360 2500 BR SCT008 15/13 Q1006 TEMPO 1500 SHRA BR BKN004
  • 191150Z 30005KT 250V330 2000 BR BKN008 14/13 Q1007 TEMPO 1500 SHRA BR BKN004

TAF TAF EBCI
Valido dal 19 a 12 ore il 20 a 18 ore UTC


191107Z 1912/2018 34006KT 6000 FEW030TCU SCT045
TEMPO 1912/1921 4000 SHRA
PROB40
TEMPO 1914/1919 VRB15G25KT 2000 TSRAGS BKN006 BKN025CB
BECMG 2000/2002 2000 BR BKN003
PROB40 2002/2008 0200 FG BKN001
BECMG 2010/2012 6000 NSW BKN008
Nessun NOTAM noto per questo aeroporto.



MetMap, La meteo Aeronautica in un colpo d'occhio ! - Copyright ORBIFLY Dicembre 2007 - Disclaimer

ORBIFLY MET'MAP TEAM :

Programmazione e sviluppo : Alexandra Zaïnal
Concezione e sviluppo : Baudouin d'Aumeries
Co-Programmazione e sviluppo : Marc-Olivier Méhu
Supporto tecnico e logistico : Manuel Goepfert
Aiuto per la traduzione : Arnaldo La Scala

Contatto : metmap@orbifly.com




FONTI E CREDITI :

   NOAA